createdAt,value
2023-04-15T00:01:11.826Z,8.40
2023-04-15T00:03:39.063Z,8.30
2023-04-15T00:06:06.192Z,8.30
2023-04-15T00:08:33.280Z,8.50
2023-04-15T00:11:05.838Z,8.50
2023-04-15T00:13:34.140Z,8.40
2023-04-15T00:16:01.645Z,8.40
2023-04-15T00:18:29.679Z,8.80
2023-04-15T00:20:56.451Z,8.70
2023-04-15T00:23:23.530Z,8.90
2023-04-15T00:25:51.048Z,9.00
2023-04-15T00:28:18.021Z,9.10
2023-04-15T00:30:45.806Z,9.30
2023-04-15T00:33:14.126Z,9.20
2023-04-15T00:35:41.513Z,9.20
2023-04-15T00:38:08.371Z,9.00
2023-04-15T00:40:35.679Z,8.90
2023-04-15T00:43:02.686Z,8.80
2023-04-15T00:45:30.194Z,8.70
2023-04-15T00:47:57.107Z,8.60
2023-04-15T00:50:24.035Z,8.50
2023-04-15T00:52:50.776Z,8.60
2023-04-15T00:55:17.567Z,8.70
2023-04-15T00:57:44.834Z,8.80
2023-04-15T01:00:12.226Z,8.70
2023-04-15T01:02:39.450Z,8.70
2023-04-15T01:05:07.726Z,8.50
2023-04-15T01:07:34.566Z,8.70
2023-04-15T01:10:01.493Z,8.70
2023-04-15T01:12:29.093Z,9.00
2023-04-15T01:14:56.689Z,9.00
2023-04-15T01:17:25.207Z,8.80
2023-04-15T01:19:53.550Z,9.10
2023-04-15T01:22:21.124Z,9.00
2023-04-15T01:24:56.340Z,8.80
2023-04-15T01:27:23.346Z,8.80
2023-04-15T01:29:50.054Z,8.90
2023-04-15T01:32:17.241Z,8.70
2023-04-15T01:34:43.994Z,8.80
2023-04-15T01:37:10.702Z,8.70
2023-04-15T01:39:37.457Z,8.70
2023-04-15T01:42:04.531Z,8.50
2023-04-15T01:44:31.638Z,8.70
2023-04-15T01:46:58.730Z,8.60
2023-04-15T01:49:25.895Z,9.10
2023-04-15T01:51:52.856Z,9.60
2023-04-15T01:54:19.747Z,9.40
2023-04-15T01:56:46.501Z,9.30
2023-04-15T01:59:13.828Z,9.20
2023-04-15T02:01:40.989Z,9.10
2023-04-15T02:04:08.217Z,9.10
2023-04-15T02:06:35.042Z,9.30
2023-04-15T02:09:02.103Z,9.30
2023-04-15T02:11:29.022Z,9.20
2023-04-15T02:13:55.837Z,9.10
2023-04-15T02:16:22.701Z,9.00
2023-04-15T02:18:49.523Z,9.00
2023-04-15T02:21:16.327Z,8.90
2023-04-15T02:23:44.086Z,8.80
2023-04-15T02:26:11.045Z,8.70
2023-04-15T02:28:37.770Z,8.60
2023-04-15T02:31:08.248Z,8.70
2023-04-15T02:33:35.100Z,8.70
2023-04-15T02:36:01.894Z,8.60
2023-04-15T02:38:28.789Z,8.50
2023-04-15T02:40:55.525Z,8.50
2023-04-15T02:43:22.315Z,8.50
2023-04-15T02:45:50.251Z,8.70
2023-04-15T02:48:19.442Z,8.60
2023-04-15T02:50:47.001Z,8.60
2023-04-15T02:53:14.759Z,8.60
2023-04-15T02:55:42.776Z,8.50
2023-04-15T02:58:09.744Z,8.60
2023-04-15T03:00:36.534Z,8.80
2023-04-15T03:03:06.174Z,8.70
2023-04-15T03:05:33.349Z,8.70
2023-04-15T03:08:01.268Z,8.70
2023-04-15T03:10:28.515Z,8.70
2023-04-15T03:12:55.659Z,9.20
2023-04-15T03:15:23.157Z,9.00
2023-04-15T03:17:50.006Z,9.10
2023-04-15T03:20:17.084Z,9.30
2023-04-15T03:22:44.030Z,9.60
2023-04-15T03:25:10.825Z,9.80
2023-04-15T03:27:38.784Z,9.80
2023-04-15T03:30:06.776Z,10.00
2023-04-15T03:32:33.664Z,10.20
2023-04-15T03:35:00.526Z,10.20
2023-04-15T03:37:27.540Z,9.90
2023-04-15T03:39:54.429Z,9.70
2023-04-15T03:42:21.241Z,9.80
2023-04-15T03:44:48.045Z,9.60
2023-04-15T03:47:14.956Z,9.70
2023-04-15T03:49:41.663Z,9.70
2023-04-15T03:52:08.508Z,9.90
2023-04-15T03:54:35.270Z,9.90
2023-04-15T03:57:02.318Z,9.60
2023-04-15T03:59:29.094Z,9.40
2023-04-15T04:01:56.016Z,9.60
2023-04-15T04:04:22.896Z,9.50
2023-04-15T04:06:49.723Z,9.70
2023-04-15T04:09:16.435Z,9.70
2023-04-15T04:11:43.235Z,10.00
2023-04-15T04:14:10.031Z,9.80
2023-04-15T04:16:36.887Z,10.00
2023-04-15T04:19:03.914Z,9.90
2023-04-15T04:21:31.072Z,9.90
2023-04-15T04:23:59.061Z,9.80
2023-04-15T04:26:26.159Z,9.60
2023-04-15T04:28:52.952Z,9.60
2023-04-15T04:31:19.834Z,9.70
2023-04-15T04:33:46.638Z,9.00
2023-04-15T04:36:13.424Z,8.60
2023-04-15T04:38:40.214Z,8.50
2023-04-15T04:41:06.969Z,8.40
2023-04-15T04:43:33.747Z,8.50
2023-04-15T04:46:00.506Z,8.70
2023-04-15T04:48:27.398Z,8.60
2023-04-15T04:50:54.347Z,8.70
2023-04-15T04:53:21.182Z,9.00
2023-04-15T04:55:47.909Z,9.00
2023-04-15T04:58:14.681Z,9.20
2023-04-15T05:00:42.128Z,9.00
2023-04-15T05:03:09.159Z,8.70
2023-04-15T05:05:37.023Z,8.50
2023-04-15T05:08:03.874Z,8.20
2023-04-15T05:10:30.698Z,8.10
2023-04-15T05:12:57.915Z,8.00
2023-04-15T05:15:24.834Z,8.00
2023-04-15T05:17:51.791Z,8.30
2023-04-15T05:20:18.670Z,8.50
2023-04-15T05:22:45.488Z,8.90
2023-04-15T05:25:12.735Z,9.10
2023-04-15T05:27:39.505Z,8.70
2023-04-15T05:30:07.288Z,8.50
2023-04-15T05:32:34.018Z,8.50
2023-04-15T05:35:01.204Z,8.90
2023-04-15T05:37:28.062Z,9.00
2023-04-15T05:39:54.811Z,8.80
2023-04-15T05:42:21.618Z,9.10
2023-04-15T05:44:48.360Z,9.20
2023-04-15T05:47:15.058Z,9.20
2023-04-15T05:49:41.787Z,8.90
2023-04-15T05:52:08.524Z,8.90
2023-04-15T05:54:35.517Z,8.90
2023-04-15T05:57:02.819Z,8.50
2023-04-15T05:59:29.644Z,8.60
2023-04-15T06:01:56.569Z,8.50
2023-04-15T06:04:23.450Z,8.50
2023-04-15T06:06:50.288Z,8.70
2023-04-15T06:09:16.982Z,8.90
2023-04-15T06:11:43.849Z,8.90
2023-04-15T06:14:10.688Z,8.80
2023-04-15T06:16:37.593Z,8.70
2023-04-15T06:19:04.647Z,8.40
2023-04-15T06:21:31.898Z,8.50
2023-04-15T06:24:01.289Z,8.30
2023-04-15T06:26:28.329Z,8.30
2023-04-15T06:28:55.703Z,8.50
2023-04-15T06:31:22.874Z,8.80
2023-04-15T06:33:49.766Z,8.70
2023-04-15T06:36:16.551Z,8.90
2023-04-15T06:38:43.296Z,9.00
2023-04-15T06:41:10.088Z,9.10
2023-04-15T06:43:36.844Z,9.20
2023-04-15T06:46:03.764Z,9.20
2023-04-15T06:48:30.567Z,9.40
2023-04-15T06:50:58.356Z,9.50
2023-04-15T06:53:28.049Z,9.60
2023-04-15T06:55:54.922Z,9.70
2023-04-15T06:58:21.907Z,9.70
2023-04-15T07:00:49.098Z,9.70
2023-04-15T07:03:16.042Z,9.70
2023-04-15T07:05:43.455Z,9.70
2023-04-15T07:08:10.345Z,9.70
2023-04-15T07:10:37.226Z,9.70
2023-04-15T07:13:05.656Z,9.60
2023-04-15T07:15:32.416Z,9.50
2023-04-15T07:17:59.204Z,9.60
2023-04-15T07:20:26.128Z,9.70
2023-04-15T07:22:53.235Z,9.70
2023-04-15T07:25:20.166Z,9.70
2023-04-15T07:27:47.482Z,9.60
2023-04-15T07:30:14.499Z,9.60
2023-04-15T07:32:42.473Z,9.60
2023-04-15T07:35:09.843Z,9.60
2023-04-15T07:37:36.672Z,9.60
2023-04-15T07:40:05.044Z,9.70
2023-04-15T07:42:31.790Z,9.80
2023-04-15T07:44:58.589Z,10.00
2023-04-15T07:47:25.869Z,10.00
2023-04-15T07:49:52.931Z,10.10
2023-04-15T07:52:19.665Z,10.00
2023-04-15T07:54:46.952Z,9.90
2023-04-15T07:57:13.640Z,9.90
2023-04-15T07:59:40.474Z,9.90
2023-04-15T08:02:08.542Z,10.00
2023-04-15T08:04:35.557Z,10.10
2023-04-15T08:07:02.966Z,10.10
2023-04-15T08:09:29.759Z,10.10
2023-04-15T08:11:57.096Z,10.00
2023-04-15T08:14:24.829Z,10.10
2023-04-15T08:16:51.662Z,10.20
2023-04-15T08:19:18.400Z,10.40
2023-04-15T08:21:45.628Z,10.50
2023-04-15T08:24:13.026Z,10.40
2023-04-15T08:26:39.837Z,10.50
2023-04-15T08:29:06.540Z,10.50
2023-04-15T08:31:33.565Z,10.60
2023-04-15T08:34:00.518Z,10.70
2023-04-15T08:36:27.471Z,10.70
2023-04-15T08:38:54.286Z,10.90
2023-04-15T08:41:23.996Z,11.00
2023-04-15T08:44:04.392Z,11.00
2023-04-15T08:46:37.339Z,11.10
2023-04-15T08:49:05.577Z,11.20
2023-04-15T08:51:33.668Z,11.30
2023-04-15T08:54:01.532Z,11.50
2023-04-15T08:56:30.934Z,11.80
2023-04-15T08:58:58.682Z,12.00
2023-04-15T09:01:26.069Z,12.10
2023-04-15T09:03:54.985Z,12.10
2023-04-15T09:06:22.999Z,12.10
2023-04-15T09:08:51.815Z,12.10
2023-04-15T09:11:20.117Z,12.30
2023-04-15T09:13:47.161Z,12.60
2023-04-15T09:16:14.380Z,12.80
2023-04-15T09:18:41.258Z,12.90
2023-04-15T09:21:11.445Z,13.00
2023-04-15T09:23:40.090Z,13.20
2023-04-15T09:26:07.178Z,13.30
2023-04-15T09:28:41.057Z,13.20
2023-04-15T09:31:07.987Z,13.20
2023-04-15T09:33:34.746Z,13.40
2023-04-15T09:36:05.659Z,13.50
2023-04-15T09:38:32.586Z,13.70
2023-04-15T09:40:59.629Z,13.80
2023-04-15T09:43:40.055Z,14.10
2023-04-15T09:46:06.912Z,14.10
2023-04-15T09:48:33.667Z,14.20
2023-04-15T09:51:01.941Z,13.90
2023-04-15T09:53:30.547Z,13.90
2023-04-15T09:56:03.306Z,14.00
2023-04-15T09:58:34.990Z,14.10
2023-04-15T10:01:05.920Z,14.40
2023-04-15T10:03:36.893Z,14.60
2023-04-15T10:06:05.573Z,14.30
2023-04-15T10:08:34.806Z,14.30
2023-04-15T10:11:03.155Z,14.50
2023-04-15T10:13:38.184Z,14.50
2023-04-15T10:16:12.384Z,14.30
2023-04-15T10:18:44.412Z,14.30
2023-04-15T10:21:13.026Z,14.30
2023-04-15T10:23:40.183Z,14.40
2023-04-15T10:26:07.570Z,14.50
2023-04-15T10:28:35.165Z,14.70
2023-04-15T10:31:02.457Z,14.90
2023-04-15T10:33:30.065Z,15.20
2023-04-15T10:35:57.458Z,15.30
2023-04-15T10:38:44.261Z,15.30
2023-04-15T10:41:21.028Z,15.10
2023-04-15T10:44:04.514Z,14.90
2023-04-15T10:46:36.821Z,15.00
2023-04-15T10:49:17.995Z,14.80
2023-04-15T10:51:47.344Z,14.90
2023-04-15T10:54:26.984Z,15.00
2023-04-15T10:57:06.016Z,14.90
2023-04-15T10:59:58.907Z,14.70
2023-04-15T11:02:44.915Z,14.70
2023-04-15T11:05:13.755Z,14.70
2023-04-15T11:07:49.960Z,14.90
2023-04-15T11:10:26.175Z,15.20
2023-04-15T11:12:58.145Z,15.10
2023-04-15T11:15:28.564Z,14.90
2023-04-15T11:17:56.963Z,14.70
2023-04-15T11:20:24.104Z,14.60
2023-04-15T11:22:52.623Z,14.70
2023-04-15T11:25:39.107Z,14.80
2023-04-15T11:28:07.603Z,15.10
2023-04-15T11:30:36.675Z,15.00
2023-04-15T11:33:05.944Z,15.20
2023-04-15T11:35:33.152Z,14.90
2023-04-15T11:38:06.231Z,15.10
2023-04-15T11:40:35.866Z,15.10
2023-04-15T11:43:09.830Z,15.20
2023-04-15T11:45:38.360Z,15.20
2023-04-15T11:48:09.553Z,15.20
2023-04-15T11:50:37.346Z,15.30
2023-04-15T11:53:08.393Z,15.10
2023-04-15T11:55:47.154Z,15.00
2023-04-15T11:58:24.758Z,15.00
2023-04-15T12:00:57.793Z,15.20
2023-04-15T12:03:32.112Z,15.30
2023-04-15T12:06:21.731Z,15.40
2023-04-15T12:09:00.547Z,15.00
2023-04-15T12:11:27.258Z,15.20
2023-04-15T12:13:56.741Z,15.30
2023-04-15T12:16:24.749Z,15.20
2023-04-15T12:18:56.280Z,15.00
2023-04-15T12:21:24.756Z,15.00
2023-04-15T12:23:52.928Z,15.20
2023-04-15T12:26:30.440Z,15.20
2023-04-15T12:29:05.752Z,15.30
2023-04-15T12:31:32.971Z,15.40
2023-04-15T12:34:01.156Z,15.30
2023-04-15T12:36:30.295Z,15.20
2023-04-15T12:38:57.217Z,15.20
2023-04-15T12:41:24.469Z,15.20
2023-04-15T12:43:51.481Z,15.20
2023-04-15T12:46:18.886Z,15.30
2023-04-15T12:48:46.302Z,15.40
2023-04-15T12:51:13.715Z,15.40
2023-04-15T12:53:40.620Z,15.50
2023-04-15T12:56:07.740Z,15.50
2023-04-15T12:58:34.560Z,15.50
2023-04-15T13:01:01.363Z,15.50
2023-04-15T13:03:28.245Z,15.40
2023-04-15T13:05:55.162Z,15.60
2023-04-15T13:08:21.991Z,15.60
2023-04-15T13:10:48.723Z,15.60
2023-04-15T13:13:15.894Z,15.60
2023-04-15T13:15:45.696Z,15.60
2023-04-15T13:18:12.566Z,15.60
2023-04-15T13:20:39.317Z,15.50
2023-04-15T13:23:06.300Z,15.40
2023-04-15T13:25:33.115Z,15.40
2023-04-15T13:28:01.230Z,15.40
2023-04-15T13:30:28.306Z,15.60
2023-04-15T13:32:55.192Z,15.50
2023-04-15T13:35:21.991Z,15.60
2023-04-15T13:37:48.765Z,15.50
2023-04-15T13:40:15.677Z,15.50
2023-04-15T13:42:42.974Z,15.50
2023-04-15T13:45:10.349Z,15.40
2023-04-15T13:47:37.153Z,15.30
2023-04-15T13:50:04.476Z,15.30
2023-04-15T13:52:31.247Z,15.30
2023-04-15T13:55:18.208Z,15.30
2023-04-15T13:57:45.012Z,15.30
2023-04-15T14:00:12.816Z,15.30
2023-04-15T14:02:40.654Z,15.40
2023-04-15T14:05:07.997Z,15.30
2023-04-15T14:07:34.761Z,15.20
2023-04-15T14:10:01.521Z,15.40
2023-04-15T14:12:28.281Z,15.50
2023-04-15T14:14:55.036Z,15.50
2023-04-15T14:17:21.866Z,15.50
2023-04-15T14:19:48.754Z,15.40
2023-04-15T14:22:15.723Z,15.20
2023-04-15T14:24:42.547Z,15.20
2023-04-15T14:27:09.504Z,15.30
2023-04-15T14:29:36.403Z,15.40
2023-04-15T14:32:11.027Z,15.40
2023-04-15T14:34:40.014Z,15.20
2023-04-15T14:37:06.966Z,15.00
2023-04-15T14:39:33.736Z,14.90
2023-04-15T14:42:00.473Z,14.90
2023-04-15T14:44:27.238Z,15.00
2023-04-15T14:46:54.861Z,15.10
2023-04-15T14:49:21.774Z,15.30
2023-04-15T14:51:48.513Z,15.30
2023-04-15T14:54:15.564Z,15.30
2023-04-15T14:56:42.358Z,15.30
2023-04-15T14:59:09.086Z,15.40
2023-04-15T15:01:35.920Z,15.40
2023-04-15T15:04:02.906Z,14.90
2023-04-15T15:06:29.747Z,14.90
2023-04-15T15:08:56.485Z,14.90
2023-04-15T15:11:23.272Z,14.90
2023-04-15T15:13:50.113Z,15.00
2023-04-15T15:16:16.973Z,15.00
2023-04-15T15:18:43.828Z,15.10
2023-04-15T15:21:10.899Z,15.00
2023-04-15T15:23:37.599Z,14.90
2023-04-15T15:26:04.906Z,14.90
2023-04-15T15:28:31.641Z,15.10
2023-04-15T15:30:58.429Z,15.00
2023-04-15T15:33:25.308Z,15.00
2023-04-15T15:35:52.101Z,14.90
2023-04-15T15:38:18.916Z,14.80
2023-04-15T15:40:45.775Z,14.60
2023-04-15T15:43:12.527Z,14.30
2023-04-15T15:45:40.790Z,14.30
2023-04-15T15:48:07.790Z,14.40
2023-04-15T15:50:34.623Z,14.30
2023-04-15T15:53:01.378Z,14.20
2023-04-15T15:55:28.232Z,14.10
2023-04-15T15:57:54.951Z,14.10
2023-04-15T16:00:23.196Z,14.10
2023-04-15T16:03:06.147Z,14.30
2023-04-15T16:05:34.607Z,14.40
2023-04-15T16:08:01.892Z,14.50
2023-04-15T16:10:28.909Z,14.60
2023-04-15T16:12:55.841Z,14.50
2023-04-15T16:15:25.052Z,14.50
2023-04-15T16:17:52.069Z,14.50
2023-04-15T16:20:18.954Z,14.40
2023-04-15T16:22:45.950Z,14.60
2023-04-15T16:25:12.922Z,14.40
2023-04-15T16:27:54.695Z,14.50
2023-04-15T16:30:26.048Z,14.30
2023-04-15T16:32:53.088Z,14.20
2023-04-15T16:35:20.106Z,14.30
2023-04-15T16:37:46.881Z,14.30
2023-04-15T16:40:13.706Z,14.20
2023-04-15T16:42:43.396Z,14.10
2023-04-15T16:45:10.816Z,14.30
2023-04-15T16:47:37.571Z,14.20
2023-04-15T16:50:04.705Z,14.10
2023-04-15T16:52:31.498Z,14.10
2023-04-15T16:54:58.271Z,13.90
2023-04-15T16:57:25.225Z,13.90
2023-04-15T16:59:59.542Z,13.90
2023-04-15T17:02:26.632Z,13.70
2023-04-15T17:04:53.549Z,13.40
2023-04-15T17:07:20.468Z,13.30
2023-04-15T17:09:47.209Z,13.40
2023-04-15T17:12:14.427Z,13.60
2023-04-15T17:14:41.205Z,13.60
2023-04-15T17:17:08.451Z,13.60
2023-04-15T17:19:35.248Z,13.50
2023-04-15T17:22:02.320Z,13.50
2023-04-15T17:24:29.175Z,13.50
2023-04-15T17:26:56.790Z,13.40
2023-04-15T17:29:24.126Z,13.40
2023-04-15T17:31:50.909Z,13.40
2023-04-15T17:34:17.697Z,13.40
2023-04-15T17:36:45.229Z,13.40
2023-04-15T17:39:12.002Z,13.40
2023-04-15T17:41:38.738Z,13.40
2023-04-15T17:44:05.750Z,13.30
2023-04-15T17:46:32.795Z,13.20
2023-04-15T17:48:59.630Z,13.10
2023-04-15T17:51:26.557Z,13.10
2023-04-15T17:53:53.333Z,13.00
2023-04-15T17:56:20.106Z,12.70
2023-04-15T17:58:46.924Z,12.60
2023-04-15T18:01:13.643Z,12.50
2023-04-15T18:03:40.506Z,12.50
2023-04-15T18:06:07.416Z,12.30
2023-04-15T18:08:34.168Z,12.20
2023-04-15T18:11:00.870Z,12.20
2023-04-15T18:13:28.355Z,12.20
2023-04-15T18:15:56.145Z,12.10
2023-04-15T18:18:22.913Z,12.10
2023-04-15T18:20:49.774Z,12.10
2023-04-15T18:23:16.481Z,12.10
2023-04-15T18:25:43.763Z,11.90
2023-04-15T18:28:10.705Z,11.80
2023-04-15T18:30:37.548Z,11.80
2023-04-15T18:33:04.702Z,11.70
2023-04-15T18:35:31.595Z,11.60
2023-04-15T18:37:58.960Z,11.50
2023-04-15T18:40:25.985Z,11.50
2023-04-15T18:42:52.908Z,11.30
2023-04-15T18:45:19.640Z,11.30
2023-04-15T18:47:46.660Z,11.30
2023-04-15T18:50:13.458Z,11.10
2023-04-15T18:52:40.205Z,11.00
2023-04-15T18:55:07.423Z,10.90
2023-04-15T18:57:35.499Z,10.90
2023-04-15T19:00:03.560Z,10.80
2023-04-15T19:02:30.675Z,10.90
2023-04-15T19:04:57.505Z,10.80
2023-04-15T19:07:24.893Z,10.70
2023-04-15T19:09:51.656Z,10.70
2023-04-15T19:12:18.395Z,10.60
2023-04-15T19:14:45.113Z,10.60
2023-04-15T19:17:11.895Z,10.70
2023-04-15T19:19:38.931Z,10.50
2023-04-15T19:22:06.175Z,10.50
2023-04-15T19:24:33.370Z,10.50
2023-04-15T19:27:00.208Z,10.30
2023-04-15T19:29:28.642Z,10.10
2023-04-15T19:31:56.036Z,10.10
2023-04-15T19:34:22.974Z,9.90
2023-04-15T19:36:49.692Z,9.80
2023-04-15T19:39:18.525Z,9.80
2023-04-15T19:41:45.384Z,9.80
2023-04-15T19:44:15.078Z,9.90
2023-04-15T19:46:44.092Z,9.90
2023-04-15T19:49:11.203Z,9.90
2023-04-15T19:51:37.956Z,9.60
2023-04-15T19:54:04.677Z,9.40
2023-04-15T19:56:32.916Z,9.50
2023-04-15T19:59:02.006Z,9.30
2023-04-15T20:01:29.045Z,9.20
2023-04-15T20:03:56.339Z,9.30
2023-04-15T20:06:23.343Z,9.40
2023-04-15T20:08:50.412Z,9.30
2023-04-15T20:11:17.237Z,9.10
2023-04-15T20:13:44.022Z,9.00
2023-04-15T20:16:11.723Z,9.00
2023-04-15T20:18:38.609Z,8.80
2023-04-15T20:21:05.551Z,8.80
2023-04-15T20:23:32.423Z,8.80
2023-04-15T20:25:59.194Z,8.70
2023-04-15T20:28:27.480Z,8.50
2023-04-15T20:30:54.253Z,8.60
2023-04-15T20:33:22.246Z,8.60
2023-04-15T20:35:49.080Z,8.70
2023-04-15T20:38:16.441Z,8.70
2023-04-15T20:40:43.707Z,8.80
2023-04-15T20:43:10.522Z,8.60
2023-04-15T20:45:37.924Z,8.50
2023-04-15T20:48:05.494Z,8.40
2023-04-15T20:50:32.248Z,8.40
2023-04-15T20:52:59.069Z,8.40
2023-04-15T20:55:25.839Z,8.20
2023-04-15T20:57:52.570Z,8.20
2023-04-15T21:00:19.356Z,8.20
2023-04-15T21:02:46.576Z,8.20
2023-04-15T21:05:13.394Z,8.30
2023-04-15T21:07:41.044Z,8.20
2023-04-15T21:10:08.105Z,8.20
2023-04-15T21:12:34.859Z,8.40
2023-04-15T21:15:01.762Z,8.50
2023-04-15T21:17:28.506Z,8.30
2023-04-15T21:19:55.255Z,8.30
2023-04-15T21:22:22.005Z,8.40
2023-04-15T21:24:49.068Z,8.30
2023-04-15T21:27:15.939Z,8.20
2023-04-15T21:29:42.685Z,8.20
2023-04-15T21:32:09.807Z,8.20
2023-04-15T21:34:36.687Z,8.20
2023-04-15T21:37:03.566Z,8.30
2023-04-15T21:39:30.368Z,8.30
2023-04-15T21:41:57.948Z,8.30
2023-04-15T21:44:25.079Z,8.30
2023-04-15T21:46:52.170Z,8.10
2023-04-15T21:49:20.344Z,8.00
2023-04-15T21:51:48.018Z,7.90
2023-04-15T21:54:14.919Z,8.00
2023-04-15T21:56:42.496Z,7.80
2023-04-15T21:59:09.288Z,7.90
2023-04-15T22:01:36.222Z,7.90
2023-04-15T22:04:03.158Z,8.10
2023-04-15T22:06:29.952Z,8.30
2023-04-15T22:08:57.971Z,8.20
2023-04-15T22:11:29.595Z,8.30
2023-04-15T22:13:57.545Z,8.30
2023-04-15T22:16:27.814Z,8.10
2023-04-15T22:18:57.741Z,7.80
2023-04-15T22:21:24.544Z,7.30
2023-04-15T22:23:51.782Z,7.30
2023-04-15T22:26:18.640Z,7.30
2023-04-15T22:28:45.894Z,7.30
2023-04-15T22:31:13.696Z,7.30
2023-04-15T22:33:40.672Z,7.20
2023-04-15T22:36:07.556Z,7.20
2023-04-15T22:38:34.312Z,7.30
2023-04-15T22:41:01.273Z,7.40
2023-04-15T22:43:28.060Z,7.60
2023-04-15T22:45:55.223Z,7.80
2023-04-15T22:48:22.636Z,7.70
2023-04-15T22:50:49.733Z,7.40
2023-04-15T22:53:17.405Z,7.40
2023-04-15T22:55:48.490Z,7.30
2023-04-15T22:58:16.335Z,7.30
2023-04-15T23:00:43.269Z,7.50
2023-04-15T23:03:10.319Z,7.40
2023-04-15T23:05:37.463Z,7.40
2023-04-15T23:08:04.360Z,7.30
2023-04-15T23:10:31.270Z,7.40
2023-04-15T23:12:58.075Z,7.60
2023-04-15T23:15:25.401Z,7.70
2023-04-15T23:17:52.231Z,7.70
2023-04-15T23:20:18.988Z,7.90
2023-04-15T23:22:45.759Z,7.70
2023-04-15T23:25:12.509Z,7.60
2023-04-15T23:27:39.281Z,7.40
2023-04-15T23:30:06.962Z,7.40
2023-04-15T23:32:33.829Z,7.70
2023-04-15T23:35:00.717Z,7.60
2023-04-15T23:37:27.459Z,7.80
2023-04-15T23:39:55.768Z,7.80
2023-04-15T23:42:24.132Z,7.70
2023-04-15T23:44:51.116Z,7.90
2023-04-15T23:47:17.910Z,8.00
2023-04-15T23:49:44.739Z,8.00
2023-04-15T23:52:11.740Z,8.00
2023-04-15T23:54:38.502Z,8.20
2023-04-15T23:57:05.308Z,8.20
2023-04-15T23:59:32.027Z,8.20
